Time;durP1;ratioP1;P1;durP2;ratioP2;P2;SDS_P1;SDS_P2;PMS_P1;PMS_P2;Temp;Humidity;BMP_temperature;BMP_pressure;BME280_temperature;BME280_humidity;BME280_pressure;Samples;Min_cycle;Max_cycle;Signal;HPM_P1;HPM_P2
2022/01/18 00:00:49;;;;;;;27.70;4.63;;;7.00;99.90;;;;;;4845340;29;20137;-88
2022/01/18 00:03:15;;;;;;;27.20;4.63;;;6.80;99.90;;;;;;4844434;29;20460;-88
2022/01/18 00:05:44;;;;;;;27.90;4.33;;;6.80;99.90;;;;;;4861609;29;20054;-88
2022/01/18 00:08:09;;;;;;;26.63;4.50;;;6.80;99.90;;;;;;4860286;29;20455;-88
2022/01/18 00:10:35;;;;;;;28.27;4.57;;;7.30;99.90;;;;;;4859316;29;20081;-88
2022/01/18 00:15:41;;;;;;;35.53;5.07;;;6.90;99.90;;;;;;4861445;29;20088;-88
2022/01/18 00:18:10;;;;;;;35.17;5.57;;;7.30;99.90;;;;;;4859400;29;20049;-88
2022/01/18 00:23:09;;;;;;;29.47;5.03;;;6.70;99.90;;;;;;4859735;29;20073;-88
2022/01/18 00:25:46;;;;;;;29.17;4.80;;;6.80;99.90;;;;;;4843621;29;20102;-88
2022/01/18 00:28:18;;;;;;;38.70;5.40;;;7.70;99.90;;;;;;4859882;29;20057;-88
2022/01/18 00:33:24;;;;;;;31.93;4.97;;;6.90;99.90;;;;;;4844298;29;20072;-88
2022/01/18 00:36:03;;;;;;;37.10;5.00;;;6.70;99.90;;;;;;4859371;29;20065;-88
2022/01/18 00:38:44;;;;;;;34.87;6.23;;;7.70;99.90;;;;;;4843069;29;20097;-88
2022/01/18 00:41:18;;;;;;;28.57;5.03;;;6.60;99.90;;;;;;4859712;29;20049;-89
2022/01/18 00:43:44;;;;;;;32.07;5.53;;;6.60;99.90;;;;;;4843757;29;20085;-88
2022/01/18 00:46:28;;;;;;;37.60;5.97;;;6.60;99.90;;;;;;4857874;29;20379;-88
2022/01/18 00:49:00;;;;;;;37.27;5.87;;;6.40;99.90;;;;;;4844111;29;20057;-88
2022/01/18 00:51:40;;;;;;;28.07;5.20;;;6.70;99.90;;;;;;4858419;29;20058;-87
2022/01/18 00:54:18;;;;;;;35.03;5.77;;;6.60;99.90;;;;;;4859132;29;20136;-87
2022/01/18 00:56:44;;;;;;;27.77;4.67;;;6.60;99.90;;;;;;4859271;29;20095;-88
2022/01/18 00:59:10;;;;;;;36.23;5.80;;;6.70;99.90;;;;;;4842844;29;20050;-88
2022/01/18 01:01:42;;;;;;;30.47;5.00;;;6.80;99.90;;;;;;4858541;29;20056;-87
2022/01/18 01:04:22;;;;;;;28.10;5.10;;;7.10;99.90;;;;;;4860095;29;20050;-88
2022/01/18 01:06:57;;;;;;;33.90;5.17;;;6.60;99.90;;;;;;4842726;29;20140;-88
2022/01/18 01:09:37;;;;;;;32.43;5.33;;;6.70;99.90;;;;;;4843100;29;20068;-88
2022/01/18 01:12:11;;;;;;;29.37;5.50;;;6.70;99.90;;;;;;4843089;29;20484;-88
2022/01/18 01:14:49;;;;;;;30.17;5.17;;;6.90;99.90;;;;;;4857675;29;20053;-88
2022/01/18 01:17:40;;;;;;;27.03;5.03;;;7.60;99.90;;;;;;4858319;29;20053;-88
2022/01/18 01:43:13;;;;;;;28.87;5.13;;;6.90;99.90;;;;;;4858269;29;20141;-88
2022/01/18 01:45:40;;;;;;;28.67;4.63;;;6.80;99.90;;;;;;4859051;29;20053;-88
2022/01/18 01:48:11;;;;;;;26.67;5.30;;;6.80;99.90;;;;;;4859356;29;20053;-88
2022/01/18 01:50:55;;;;;;;23.10;4.73;;;6.80;99.90;;;;;;4858705;29;20094;-87
2022/01/18 01:53:23;;;;;;;32.38;6.13;;;7.10;99.90;;;;;;4858452;29;20383;-88
2022/01/18 01:55:55;;;;;;;28.63;4.53;;;6.50;99.90;;;;;;4858175;29;20045;-87
2022/01/18 01:58:32;;;;;;;25.83;5.57;;;7.90;99.90;;;;;;4861077;29;20041;-88
2022/01/18 02:01:13;;;;;;;29.37;5.20;;;6.40;99.90;;;;;;4862508;29;20045;-87
2022/01/18 02:03:39;;;;;;;26.37;4.83;;;6.50;99.90;;;;;;4861885;29;20110;-88
2022/01/18 02:06:05;;;;;;;28.93;5.00;;;7.00;99.90;;;;;;4847722;29;20049;-87
2022/01/18 02:08:30;;;;;;;31.33;5.20;;;6.70;99.90;;;;;;4863495;29;20083;-87
2022/01/18 02:10:56;;;;;;;27.50;4.87;;;6.50;99.90;;;;;;4861770;29;20052;-88
2022/01/18 02:13:37;;;;;;;29.33;5.10;;;6.60;99.90;;;;;;4861716;29;20128;-88
2022/01/18 02:21:45;;;;;;;27.50;5.10;;;6.40;99.90;;;;;;4861687;29;20553;-88
2022/01/18 02:21:57;;;;;;;;;;;6.40;99.90;;;;;;4862473;29;20053;-88
2022/01/18 02:24:23;;;;;;;22.33;4.57;;;6.50;99.90;;;;;;4845845;29;20002;-87
2022/01/18 02:26:51;;;;;;;26.17;4.53;;;6.50;99.90;;;;;;4863457;29;20128;-88
2022/01/18 02:29:18;;;;;;;26.07;5.20;;;6.40;99.90;;;;;;4861996;29;20122;-87
2022/01/18 02:31:43;;;;;;;30.17;5.20;;;6.30;99.90;;;;;;4862449;29;20072;-88
2022/01/18 02:34:19;;;;;;;26.87;4.93;;;6.40;99.90;;;;;;4862381;29;20133;-88
2022/01/18 02:36:45;;;;;;;20.27;4.90;;;6.40;99.90;;;;;;4861971;29;20458;-88
2022/01/18 02:39:13;;;;;;;25.40;4.97;;;7.00;99.90;;;;;;4861112;29;20056;-88
2022/01/18 02:41:39;;;;;;;21.87;4.50;;;6.40;99.90;;;;;;4863308;29;20077;-87
2022/01/18 02:44:08;;;;;;;24.10;5.33;;;6.20;99.90;;;;;;4845466;29;20545;-87
2022/01/18 02:46:34;;;;;;;21.87;4.83;;;6.00;99.90;;;;;;4861577;29;20056;-88
2022/01/18 02:49:01;;;;;;;32.00;5.27;;;7.30;99.90;;;;;;4861554;29;20137;-88
2022/01/18 02:51:27;;;;;;;31.07;5.30;;;6.20;99.90;;;;;;4860979;29;20045;-88
2022/01/18 02:54:00;;;;;;;23.70;4.90;;;6.30;99.90;;;;;;4861673;29;20066;-88
2022/01/18 02:56:28;;;;;;;24.50;5.13;;;6.30;99.90;;;;;;4867570;23;20053;-87
2022/01/18 02:59:04;;;;;;;28.10;5.30;;;6.20;99.90;;;;;;4860777;29;20053;-88
2022/01/18 03:04:23;;;;;;;25.83;5.40;;;6.00;99.90;;;;;;4845614;29;20057;-88
2022/01/18 03:07:01;;;;;;;27.63;5.33;;;6.20;99.90;;;;;;4845100;29;20209;-87
2022/01/18 03:09:26;;;;;;;32.27;5.43;;;6.00;99.90;;;;;;4861641;29;20137;-88
2022/01/18 03:11:52;;;;;;;30.33;5.33;;;5.90;99.90;;;;;;4861830;29;20086;-88
2022/01/18 03:14:34;;;;;;;36.03;6.23;;;6.00;99.90;;;;;;4860297;29;20057;-88
2022/01/18 03:17:09;;;;;;;28.90;5.87;;;6.20;99.90;;;;;;4845657;29;20113;-88
2022/01/18 03:19:47;;;;;;;29.70;7.53;;;6.70;99.90;;;;;;4860224;29;20053;-87
2022/01/18 03:22:22;;;;;;;29.83;6.13;;;6.00;99.90;;;;;;4860725;29;20085;-88
2022/01/18 03:25:24;;;;;;;27.17;6.67;;;5.80;99.90;;;;;;4860835;29;20060;-87
2022/01/18 03:28:05;;;;;;;31.90;7.03;;;6.10;99.90;;;;;;4860632;29;20053;-88
2022/01/18 03:30:47;;;;;;;31.47;6.27;;;6.10;99.90;;;;;;4860741;29;20537;-88
2022/01/18 03:33:30;;;;;;;30.37;7.00;;;5.70;99.90;;;;;;4860433;29;20060;-88
2022/01/18 03:36:06;;;;;;;26.73;6.10;;;6.30;99.90;;;;;;4861283;29;20553;-88
2022/01/18 03:38:44;;;;;;;39.10;6.90;;;6.60;99.90;;;;;;4845544;29;20356;-88
2022/01/18 03:41:23;;;;;;;29.07;6.20;;;5.70;99.90;;;;;;4860137;29;20041;-88
2022/01/18 03:43:49;;;;;;;40.10;7.30;;;5.90;99.90;;;;;;4860763;29;20060;-88
2022/01/18 03:46:26;;;;;;;44.93;8.60;;;6.20;99.90;;;;;;4860468;29;20049;-87
2022/01/18 03:48:52;;;;;;;30.20;6.33;;;5.80;99.90;;;;;;4861248;29;20041;-87
2022/01/18 03:51:18;;;;;;;39.87;7.13;;;6.00;99.90;;;;;;4860391;29;20607;-88
2022/01/18 03:53:51;;;;;;;31.30;6.67;;;6.40;99.90;;;;;;4845611;29;20402;-87
2022/01/18 03:56:20;;;;;;;35.00;7.07;;;7.10;99.90;;;;;;4859345;29;20063;-88
2022/01/18 03:59:10;;;;;;;27.57;6.40;;;5.50;99.90;;;;;;4860181;29;20053;-87
2022/01/18 04:01:35;;;;;;;33.53;7.07;;;6.00;99.90;;;;;;4859379;29;20065;-87
2022/01/18 04:04:01;;;;;;;34.80;6.60;;;5.80;99.90;;;;;;4860641;29;20056;-88
2022/01/18 04:06:45;;;;;;;29.80;6.37;;;5.80;99.90;;;;;;4844738;29;20116;-88
2022/01/18 04:09:11;;;;;;;36.60;7.53;;;6.30;99.90;;;;;;4860035;29;20057;-87
2022/01/18 04:11:49;;;;;;;33.50;6.13;;;5.80;99.90;;;;;;4845119;29;20064;-88
2022/01/18 04:14:15;;;;;;;36.83;6.60;;;6.50;99.90;;;;;;4861083;29;20145;-88
2022/01/18 04:16:58;;;;;;;30.33;7.23;;;5.70;99.90;;;;;;4859961;29;20133;-88
2022/01/18 04:27:41;;;;;;;29.27;6.50;;;5.90;99.90;;;;;;4859647;29;20057;-87
2022/01/18 04:30:08;;;;;;;31.23;6.53;;;5.90;99.90;;;;;;4860501;29;20127;-87
2022/01/18 04:32:33;;;;;;;26.90;5.93;;;6.00;99.90;;;;;;4859495;29;20041;-88
2022/01/18 04:34:59;;;;;;;28.17;5.50;;;5.90;99.90;;;;;;4844448;29;20525;-88
2022/01/18 04:37:24;;;;;;;23.10;5.30;;;5.80;99.90;;;;;;4860375;29;20084;-87
2022/01/18 04:39:50;;;;;;;28.57;5.40;;;5.90;99.90;;;;;;4860011;29;20471;-88
2022/01/18 04:50:24;;;;;;;25.67;5.38;;;5.80;99.90;;;;;;4859312;29;20054;-88
2022/01/18 04:52:50;;;;;;;24.70;5.33;;;5.80;99.90;;;;;;4858910;29;20049;-88
2022/01/18 04:55:17;;;;;;;21.83;4.70;;;5.70;99.90;;;;;;4860731;29;20074;-88
2022/01/18 04:57:52;;;;;;;24.57;5.23;;;5.60;99.90;;;;;;4858444;29;20137;-87
2022/01/18 05:00:19;;;;;;;26.23;5.20;;;5.60;99.90;;;;;;4858643;29;20054;-87
2022/01/18 05:02:52;;;;;;;26.97;5.17;;;5.70;99.90;;;;;;4860038;29;20132;-87
2022/01/18 05:05:30;;;;;;;27.83;5.33;;;5.60;99.90;;;;;;4842571;29;20178;-87
2022/01/18 05:08:13;;;;;;;27.93;5.20;;;5.70;99.90;;;;;;4860117;29;20045;-88
2022/01/18 05:10:40;;;;;;;21.93;4.43;;;5.60;99.90;;;;;;4844272;29;20060;-88
2022/01/18 05:13:17;;;;;;;21.03;4.33;;;5.60;99.90;;;;;;4858532;29;20061;-87
2022/01/18 05:15:50;;;;;;;20.63;4.70;;;6.70;99.90;;;;;;4859580;29;20050;-87
2022/01/18 05:21:24;;;;;;;20.73;4.55;;;5.70;99.90;;;;;;4860093;29;20296;-88
2022/01/18 05:23:49;;;;;;;20.83;4.67;;;5.60;99.90;;;;;;4858921;29;20049;-88
2022/01/18 05:26:15;;;;;;;21.33;4.30;;;5.80;99.90;;;;;;4858115;29;20072;-87
2022/01/18 05:28:41;;;;;;;31.03;4.57;;;5.70;99.90;;;;;;4843851;29;20087;-88
2022/01/18 05:31:06;;;;;;;29.00;4.93;;;5.60;99.90;;;;;;4859117;29;20482;-88
2022/01/18 05:33:34;;;;;;;20.63;4.40;;;5.80;99.90;;;;;;4843233;29;20090;-88
2022/01/18 05:36:00;;;;;;;26.17;5.17;;;6.40;99.90;;;;;;4859365;29;20404;-88
2022/01/18 05:38:44;;;;;;;23.40;4.57;;;5.60;99.90;;;;;;4859965;29;20239;-88
2022/01/18 05:41:16;;;;;;;25.70;4.45;;;5.70;99.90;;;;;;4859419;29;20410;-88
2022/01/18 05:43:41;;;;;;;22.87;4.90;;;5.70;99.90;;;;;;4858722;29;20068;-88
2022/01/18 05:46:07;;;;;;;20.00;4.40;;;5.60;99.90;;;;;;4858686;29;20045;-87
2022/01/18 05:48:33;;;;;;;18.13;3.67;;;5.80;99.90;;;;;;4842728;29;20059;-88
2022/01/18 05:50:59;;;;;;;21.43;4.30;;;5.80;99.90;;;;;;4859083;29;20379;-88
2022/01/18 05:53:34;;;;;;;22.33;3.90;;;5.70;99.90;;;;;;4858450;29;20058;-88
2022/01/18 05:56:03;;;;;;;25.53;4.37;;;5.60;99.90;;;;;;4864297;23;20064;-87
2022/01/18 05:58:35;;;;;;;22.67;4.70;;;5.60;99.90;;;;;;4843192;29;20057;-88
2022/01/18 06:01:14;;;;;;;21.00;4.50;;;5.50;99.90;;;;;;4858259;29;20410;-88
2022/01/18 06:06:53;;;;;;;21.17;5.32;;;5.90;99.90;;;;;;4843135;29;20054;-87
2022/01/18 06:09:39;;;;;;;22.87;5.40;;;5.50;99.90;;;;;;4855403;29;20102;-88
2022/01/18 06:12:11;;;;;;;27.07;5.03;;;5.40;99.90;;;;;;4857913;29;20062;-88
2022/01/18 06:14:37;;;;;;;27.27;5.50;;;5.40;99.90;;;;;;4858469;29;20058;-88
2022/01/18 06:17:03;;;;;;;20.00;4.93;;;6.50;99.90;;;;;;4843126;29;20104;-88
2022/01/18 06:19:40;;;;;;;24.43;5.03;;;4.60;99.90;;;;;;4858175;29;20128;-88
2022/01/18 06:22:24;;;;;;;20.77;4.90;;;5.60;99.90;;;;;;4858792;29;20121;-88
2022/01/18 06:25:04;;;;;;;24.60;5.30;;;6.00;99.90;;;;;;4858715;29;20402;-87
2022/01/18 06:27:29;;;;;;;25.07;4.57;;;5.70;99.90;;;;;;4858923;29;20446;-88
2022/01/18 06:29:55;;;;;;;24.10;4.97;;;5.60;99.90;;;;;;4857117;29;20049;-87
2022/01/18 06:32:24;;;;;;;17.10;4.10;;;5.40;99.90;;;;;;4858313;29;20050;-88
2022/01/18 06:34:56;;;;;;;20.10;4.13;;;5.40;99.90;;;;;;4858482;29;20045;-88
2022/01/18 06:37:37;;;;;;;20.03;4.77;;;5.60;99.90;;;;;;4841848;29;20181;-88
2022/01/18 06:40:11;;;;;;;18.87;4.30;;;6.50;99.90;;;;;;4843172;29;20069;-87
2022/01/18 06:42:43;;;;;;;24.00;4.20;;;5.60;99.90;;;;;;4843735;29;20116;-87
2022/01/18 06:45:24;;;;;;;19.40;4.53;;;4.90;99.90;;;;;;4846169;29;20105;-88
2022/01/18 06:48:02;;;;;;;19.97;4.30;;;5.00;99.90;;;;;;4861511;29;20062;-87
2022/01/18 06:50:31;;;;;;;20.43;4.20;;;5.60;99.90;;;;;;4845414;29;20045;-87
2022/01/18 06:53:12;;;;;;;19.97;4.53;;;6.40;99.90;;;;;;4861942;29;20095;-88
2022/01/18 06:55:41;;;;;;;17.43;4.10;;;5.30;99.90;;;;;;4860996;29;20054;-87
2022/01/18 06:58:07;;;;;;;21.97;4.37;;;6.50;99.90;;;;;;4845586;29;20113;-88
2022/01/18 07:00:33;;;;;;;21.37;4.37;;;7.00;99.90;;;;;;4860847;29;20057;-87
2022/01/18 07:03:04;;;;;;;18.93;3.67;;;4.90;99.90;;;;;;4862282;29;20049;-88
2022/01/18 07:05:37;;;;;;;20.27;4.03;;;7.50;99.90;;;;;;4860102;29;20082;-87
2022/01/18 07:08:14;;;;;;;17.33;4.13;;;5.60;99.90;;;;;;4846188;29;20085;-87
2022/01/18 07:10:40;;;;;;;16.43;3.80;;;5.50;99.90;;;;;;4861505;29;20048;-88
2022/01/18 07:13:15;;;;;;;16.83;3.53;;;5.50;99.90;;;;;;4860704;29;20405;-87
2022/01/18 07:15:47;;;;;;;21.67;3.90;;;5.20;99.90;;;;;;4861892;29;20049;-88
2022/01/18 07:18:25;;;;;;;18.53;3.00;;;5.60;99.90;;;;;;4845422;29;20062;-88
2022/01/18 07:20:51;;;;;;;16.07;3.23;;;5.40;99.90;;;;;;4861111;29;20041;-88
2022/01/18 07:23:26;;;;;;;14.20;2.90;;;5.60;99.90;;;;;;4861006;29;20046;-88
2022/01/18 07:25:58;;;;;;;15.23;3.50;;;5.40;99.90;;;;;;4861153;29;20410;-90
2022/01/18 07:28:30;;;;;;;14.47;3.40;;;5.40;99.90;;;;;;4847608;29;20053;-93
2022/01/18 07:31:00;;;;;;;15.97;3.80;;;6.90;99.90;;;;;;4863966;29;20053;-94
2022/01/18 07:33:27;;;;;;;16.57;3.83;;;5.50;99.90;;;;;;4860852;29;20045;-90
2022/01/18 07:35:56;;;;;;;17.03;3.83;;;5.90;99.90;;;;;;4862454;29;20600;-92
2022/01/18 07:38:22;;;;;;;16.73;3.90;;;6.50;99.90;;;;;;4861367;29;20050;-92
2022/01/18 07:40:57;;;;;;;17.00;3.63;;;6.50;99.90;;;;;;4861292;29;20101;-91
2022/01/18 07:43:22;;;;;;;15.83;3.50;;;5.60;99.90;;;;;;4868235;23;20463;-95
2022/01/18 07:45:54;;;;;;;18.63;3.83;;;7.30;99.90;;;;;;4861191;29;20054;-89
2022/01/18 07:48:22;;;;;;;17.80;3.87;;;6.60;99.90;;;;;;4859493;29;20093;-86
2022/01/18 07:50:57;;;;;;;16.83;3.73;;;5.60;99.90;;;;;;4861472;29;20053;-88
2022/01/18 07:53:43;;;;;;;16.20;3.20;;;5.60;99.90;;;;;;4845567;29;20537;-88
2022/01/18 07:56:09;;;;;;;19.30;3.70;;;5.70;99.90;;;;;;4845393;29;20052;-86
2022/01/18 07:58:46;;;;;;;18.40;3.50;;;5.50;99.90;;;;;;4860286;29;20053;-86
2022/01/18 08:01:21;;;;;;;17.37;3.70;;;5.40;99.90;;;;;;4844233;29;20514;-86
2022/01/18 08:03:55;;;;;;;17.13;3.73;;;5.50;99.90;;;;;;4844798;29;20094;-86
2022/01/18 08:06:21;;;;;;;16.83;3.60;;;5.50;99.90;;;;;;4860015;29;20554;-86
2022/01/18 08:08:47;;;;;;;19.10;3.60;;;5.70;99.90;;;;;;4860849;29;20053;-86
2022/01/18 08:11:19;;;;;;;15.77;3.40;;;5.50;99.90;;;;;;4860719;29;20071;-90
2022/01/18 08:13:51;;;;;;;17.63;3.70;;;5.50;99.90;;;;;;4858196;29;20046;-89
2022/01/18 08:19:00;;;;;;;17.20;3.23;;;5.90;99.90;;;;;;4845846;29;20100;-89
2022/01/18 08:21:32;;;;;;;16.40;3.93;;;5.70;99.90;;;;;;4849041;29;20041;-89
2022/01/18 08:23:58;;;;;;;18.27;4.73;;;6.40;99.90;;;;;;4849737;29;20049;-90
2022/01/18 08:26:24;;;;;;;20.03;4.67;;;5.30;99.90;;;;;;4859979;29;20113;-89
2022/01/18 08:28:49;;;;;;;18.50;4.83;;;5.50;99.90;;;;;;4859267;29;20132;-89
2022/01/18 08:31:15;;;;;;;21.23;4.83;;;5.70;99.90;;;;;;4860373;29;20038;-90
2022/01/18 08:33:59;;;;;;;22.37;5.10;;;5.70;99.90;;;;;;4855637;29;20567;-88
2022/01/18 08:36:25;;;;;;;16.27;5.20;;;5.50;99.90;;;;;;4854661;29;20050;-86
2022/01/18 08:38:53;;;;;;;16.93;4.57;;;5.70;99.90;;;;;;4861061;29;20041;-94
2022/01/18 08:41:32;;;;;;;19.47;4.73;;;5.60;99.90;;;;;;4844744;29;20053;-95
2022/01/18 08:44:00;;;;;;;19.37;5.30;;;5.20;99.90;;;;;;4861644;29;20576;-90
2022/01/18 08:46:29;;;;;;;20.07;5.73;;;5.60;99.90;;;;;;4859547;29;20061;-87
2022/01/18 08:48:55;;;;;;;19.20;5.93;;;5.60;99.90;;;;;;4859537;29;20045;-88
2022/01/18 08:51:23;;;;;;;21.17;5.50;;;5.80;99.90;;;;;;4858932;29;20057;-89
2022/01/18 08:53:50;;;;;;;19.97;5.73;;;5.70;99.90;;;;;;4860332;29;20389;-88
2022/01/18 08:56:20;;;;;;;20.33;7.63;;;5.70;99.90;;;;;;4859236;29;20046;-88
2022/01/18 08:58:47;;;;;;;21.77;7.17;;;5.80;99.90;;;;;;4859089;29;20094;-88
2022/01/18 09:01:14;;;;;;;18.20;4.77;;;5.80;99.90;;;;;;4859486;29;20508;-88
2022/01/18 09:03:43;;;;;;;18.87;4.60;;;5.80;99.90;;;;;;4860318;29;20049;-88
2022/01/18 09:06:13;;;;;;;15.03;4.50;;;5.90;99.90;;;;;;4858311;29;20049;-88
2022/01/18 09:08:54;;;;;;;23.13;8.10;;;5.80;99.90;;;;;;4859557;29;20128;-88
2022/01/18 09:11:24;;;;;;;23.67;9.07;;;6.80;99.90;;;;;;4858312;29;20045;-87
2022/01/18 09:14:02;;;;;;;19.93;6.43;;;5.80;99.90;;;;;;4859429;29;20049;-88
2022/01/18 09:16:31;;;;;;;15.80;6.70;;;6.00;99.90;;;;;;4859027;29;20049;-88
2022/01/18 09:18:57;;;;;;;22.03;8.10;;;6.90;99.90;;;;;;4858774;29;20479;-89
2022/01/18 09:21:23;;;;;;;16.27;5.13;;;6.40;99.90;;;;;;4843685;29;20060;-88
2022/01/18 09:24:06;;;;;;;17.33;5.23;;;5.80;99.90;;;;;;4859206;29;20084;-88
2022/01/18 09:26:35;;;;;;;23.35;8.43;;;6.20;99.90;;;;;;4843023;29;20053;-88
2022/01/18 09:29:06;;;;;;;18.53;7.00;;;5.90;99.90;;;;;;4859259;29;20037;-88
2022/01/18 09:31:38;;;;;;;18.67;5.90;;;5.90;99.90;;;;;;4859405;29;20414;-88
2022/01/18 09:34:19;;;;;;;20.40;7.23;;;5.80;99.90;;;;;;4859550;29;20101;-89
2022/01/18 09:37:50;;;;;;;23.73;8.13;;;6.60;99.90;;;;;;4864839;23;20089;-88
2022/01/18 09:41:11;;;;;;;18.97;6.70;;;6.40;99.90;;;;;;5118201;23;20056;-88
2022/01/18 09:44:43;;;;;;;26.93;8.90;;;6.10;99.90;;;;;;4858584;29;20068;-88
2022/01/18 09:47:35;;;;;;;22.40;6.57;;;6.00;99.90;;;;;;4843086;29;20068;-88
2022/01/18 09:50:00;;;;;;;18.40;6.53;;;5.30;99.90;;;;;;4858487;29;20113;-87
2022/01/18 09:52:38;;;;;;;21.13;6.97;;;5.70;99.90;;;;;;4860942;29;20132;-89
2022/01/18 09:55:10;;;;;;;17.03;6.03;;;5.70;99.90;;;;;;4859170;29;20050;-89
2022/01/18 09:57:56;;;;;;;19.33;6.60;;;6.00;99.90;;;;;;4858751;29;20045;-88
2022/01/18 10:00:28;;;;;;;18.23;5.83;;;5.80;99.90;;;;;;4858079;29;20479;-88
2022/01/18 10:03:04;;;;;;;18.77;5.87;;;6.00;99.90;;;;;;4860605;29;20050;-89
2022/01/18 10:05:49;;;;;;;18.97;5.97;;;6.00;99.90;;;;;;4844053;29;20061;-90
2022/01/18 10:08:23;;;;;;;;;;;5.90;99.90;;;;;;4851736;29;20061;-89
2022/01/18 10:10:53;;;;;;;22.00;6.00;;;6.10;99.90;;;;;;4846466;29;19931;-87
2022/01/18 10:13:33;;;;;;;19.23;6.07;;;6.20;99.90;;;;;;4841706;29;20049;-88
2022/01/18 10:16:05;;;;;;;18.90;6.07;;;6.20;99.90;;;;;;4824388;29;20050;-90
2022/01/18 10:18:43;;;;;;;25.87;8.47;;;6.30;99.90;;;;;;4841725;29;20081;-89
2022/01/18 10:21:33;;;;;;;21.33;8.87;;;6.40;99.90;;;;;;4843935;29;20123;-89
2022/01/18 10:24:24;;;;;;;17.73;7.20;;;6.40;99.90;;;;;;4828888;29;20046;-89
2022/01/18 10:26:57;;;;;;;21.00;6.50;;;7.10;99.90;;;;;;4844151;29;20061;-91
2022/01/18 10:29:42;;;;;;;23.42;7.15;;;7.00;99.90;;;;;;4858512;29;20241;-89
2022/01/18 10:32:29;;;;;;;20.95;7.25;;;6.40;99.90;;;;;;4859609;29;20054;-89
2022/01/18 10:37:41;;;;;;;;;;;6.50;99.90;;;;;;4843633;29;20057;-89
2022/01/18 10:44:39;;;;;;;19.10;5.47;;;6.60;99.90;;;;;;4832438;29;20069;-90
2022/01/18 10:47:05;;;;;;;15.63;5.70;;;6.20;99.90;;;;;;4828225;29;20058;-91
2022/01/18 10:49:47;;;;;;;20.60;8.00;;;6.60;99.90;;;;;;4872438;23;20072;-89
2022/01/18 10:53:22;;;;;;;20.90;12.63;;;6.70;99.90;;;;;;4861976;29;20049;-88
2022/01/18 10:56:14;;;;;;;22.00;11.88;;;6.70;99.90;;;;;;4861961;29;20088;-90
2022/01/18 10:58:53;;;;;;;17.23;6.20;;;7.90;99.90;;;;;;4861204;29;20478;-90
2022/01/18 11:01:24;;;;;;;15.17;5.57;;;7.50;99.90;;;;;;4861591;29;20049;-90
2022/01/18 11:04:21;;;;;;;19.50;6.13;;;8.10;99.90;;;;;;4861419;29;20539;-90
2022/01/18 11:07:00;;;;;;;17.37;6.63;;;6.80;99.90;;;;;;4861953;29;20049;-90
2022/01/18 11:09:35;;;;;;;19.30;6.43;;;7.80;99.90;;;;;;4861695;29;20561;-90
2022/01/18 11:12:05;;;;;;;19.40;6.80;;;6.60;99.90;;;;;;4861055;29;20045;-89
2022/01/18 11:14:47;;;;;;;20.33;7.93;;;6.80;99.90;;;;;;4861471;29;20093;-90
2022/01/18 11:19:57;;;;;;;22.03;8.33;;;7.00;99.90;;;;;;4867361;23;20050;-96
2022/01/18 11:22:26;;;;;;;19.10;7.13;;;7.30;99.90;;;;;;4850800;29;20045;-96
2022/01/18 11:24:59;;;;;;;21.30;9.43;;;7.20;99.90;;;;;;4868035;29;20049;-96
2022/01/18 11:27:43;;;;;;;20.87;8.93;;;7.00;99.90;;;;;;4872794;29;20046;-95
2022/01/18 11:30:12;;;;;;;17.10;7.17;;;7.70;99.90;;;;;;4860829;29;20049;-90
2022/01/18 11:32:49;;;;;;;18.87;5.70;;;7.00;99.90;;;;;;4855276;29;20057;-91
2022/01/18 11:35:49;;;;;;;17.00;6.40;;;7.30;99.90;;;;;;4849552;29;20087;-90
2022/01/18 11:38:58;;;;;;;15.60;5.43;;;6.90;99.90;;;;;;4838836;23;20060;-89
2022/01/18 11:41:34;;;;;;;11.77;4.20;;;6.80;99.90;;;;;;4869371;29;20060;-90
2022/01/18 11:44:26;;;;;;;14.23;5.03;;;7.00;99.90;;;;;;4853938;29;20041;-90
2022/01/18 11:46:55;;;;;;;15.77;5.70;;;6.90;99.90;;;;;;4882205;29;20053;-90
2022/01/18 11:49:30;;;;;;;13.97;5.57;;;6.60;99.90;;;;;;4869069;29;20061;-93
2022/01/18 11:52:06;;;;;;;16.10;5.90;;;6.70;99.90;;;;;;4874687;29;20053;-92
2022/01/18 11:54:58;;;;;;;16.17;5.10;;;6.90;99.90;;;;;;4864515;29;20371;-94
2022/01/18 11:57:48;;;;;;;14.97;5.80;;;7.00;99.90;;;;;;4863777;29;20108;-90
2022/01/18 12:00:27;;;;;;;13.93;6.73;;;6.50;99.90;;;;;;4863136;29;20049;-90
2022/01/18 12:03:05;;;;;;;17.20;8.00;;;6.80;99.90;;;;;;4863811;29;20390;-90
2022/01/18 12:05:43;;;;;;;17.13;4.90;;;6.90;99.90;;;;;;4879027;29;20060;-89
2022/01/18 12:08:31;;;;;;;15.30;4.53;;;6.80;99.90;;;;;;4863075;29;20454;-89
2022/01/18 12:10:58;;;;;;;13.17;4.17;;;6.80;99.90;;;;;;4879735;29;20057;-93
2022/01/18 12:13:50;;;;;;;13.97;4.73;;;6.80;99.90;;;;;;4879229;29;20103;-91
2022/01/18 12:16:25;;;;;;;16.07;4.67;;;6.90;99.90;;;;;;4878835;29;20053;-89
2022/01/18 12:18:59;;;;;;;13.53;4.10;;;6.70;99.90;;;;;;4863282;29;20048;-90
2022/01/18 12:21:28;;;;;;;15.93;4.45;;;7.20;99.90;;;;;;4862383;29;20073;-90
2022/01/18 12:23:56;;;;;;;12.80;3.70;;;6.80;99.90;;;;;;4858022;29;20513;-90
2022/01/18 12:26:31;;;;;;;11.10;3.50;;;6.70;99.90;;;;;;4867111;29;20045;-88
2022/01/18 12:32:39;;;;;;;12.13;2.83;;;6.80;99.90;;;;;;4861008;29;20160;-86
2022/01/18 12:35:34;;;;;;;10.57;2.83;;;6.70;99.90;;;;;;4843592;29;20094;-86
2022/01/18 12:37:59;;;;;;;10.27;2.30;;;6.60;99.90;;;;;;4844649;29;20081;-85
2022/01/18 12:40:34;;;;;;;14.50;3.47;;;6.70;99.90;;;;;;4860346;29;20431;-86
2022/01/18 12:45:57;;;;;;;12.33;2.90;;;6.50;99.90;;;;;;4861869;29;20068;-88
2022/01/18 12:55:22;;;;;;;11.90;3.30;;;5.90;99.90;;;;;;4864899;29;20154;-87
2022/01/18 12:58:30;;;;;;;13.67;3.63;;;6.90;99.90;;;;;;4861837;29;20560;-87
2022/01/18 13:01:05;;;;;;;12.03;2.90;;;6.80;99.90;;;;;;4870940;29;20582;-87
2022/01/18 13:03:36;;;;;;;12.60;3.43;;;6.80;99.90;;;;;;4876840;29;20165;-87
2022/01/18 13:06:05;;;;;;;10.87;3.00;;;6.80;99.90;;;;;;4877817;29;20060;-88
2022/01/18 13:08:42;;;;;;;15.13;4.13;;;7.90;99.90;;;;;;4862887;29;20052;-89
2022/01/18 13:11:42;;;;;;;12.00;2.93;;;6.70;99.90;;;;;;4872098;23;20088;-88
2022/01/18 13:14:25;;;;;;;13.07;3.17;;;6.70;99.90;;;;;;4911762;23;20056;-89
2022/01/18 13:29:48;;;;;;;11.93;2.80;;;6.60;99.90;;;;;;4947322;23;20094;-89
2022/01/18 13:32:18;;;;;;;12.63;3.03;;;6.50;99.90;;;;;;4876905;29;20052;-89
2022/01/18 13:34:45;;;;;;;16.57;3.50;;;6.10;99.90;;;;;;4870835;23;20045;-87
2022/01/18 13:37:25;;;;;;;14.63;3.70;;;7.60;99.90;;;;;;5011980;23;20152;-89
2022/01/18 13:40:27;;;;;;;12.93;3.97;;;6.50;99.90;;;;;;5069130;23;20024;-89
2022/01/18 13:47:20;;;;;;;;;;;;;;;;;;;;;
2022/01/18 13:50:03;;;;;;;12.30;3.90;;;6.40;99.90;;;;;;4763162;29;20061;-96
2022/01/18 13:52:35;;;;;;;12.25;3.83;;;6.20;99.90;;;;;;4790197;29;20055;-92
2022/01/18 13:55:08;;;;;;;10.70;3.50;;;6.30;99.90;;;;;;4796810;29;20097;-91
2022/01/18 13:57:34;;;;;;;13.18;3.97;;;6.50;99.90;;;;;;4819451;29;20074;-89
2022/01/18 14:00:10;;;;;;;11.80;3.80;;;6.20;99.90;;;;;;4794339;29;20160;-91
2022/01/18 14:02:42;;;;;;;11.77;3.67;;;6.40;99.90;;;;;;4792472;29;20097;-90
2022/01/18 14:05:32;;;;;;;12.80;3.50;;;6.20;99.90;;;;;;4784595;29;20397;-89
2022/01/18 14:08:10;;;;;;;14.37;4.03;;;6.20;99.90;;;;;;4808377;29;20062;-90
2022/01/18 14:10:42;;;;;;;13.03;5.37;;;6.20;99.90;;;;;;4794439;29;20539;-95
2022/01/18 14:17:30;;;;;;;12.67;3.70;;;5.60;99.90;;;;;;5173365;23;20053;-91
2022/01/18 14:27:44;;;;;;;17.40;5.00;;;6.20;99.90;;;;;;4862565;29;20057;-89
2022/01/18 14:30:36;;;;;;;29.67;19.90;;;6.20;99.90;;;;;;4869361;23;20086;-89
2022/01/18 14:36:57;;;;;;;22.90;12.03;;;6.30;99.90;;;;;;4791141;29;20069;-89
2022/01/18 14:39:29;;;;;;;37.53;23.57;;;5.90;99.90;;;;;;4791261;29;20503;-88
2022/01/18 14:42:33;;;;;;;17.13;5.67;;;6.00;99.90;;;;;;4824091;29;20110;-89
2022/01/18 14:48:42;;;;;;;14.37;4.40;;;6.00;99.90;;;;;;4808933;29;20111;-88
2022/01/18 14:51:21;;;;;;;13.80;3.50;;;6.30;99.90;;;;;;4842034;23;20054;-89
2022/01/18 14:53:49;;;;;;;21.87;9.83;;;5.90;99.90;;;;;;4958192;23;20069;-92
2022/01/18 14:56:14;;;;;;;21.70;9.67;;;5.30;99.90;;;;;;4880537;29;20064;-94
2022/01/18 14:58:56;;;;;;;17.83;5.20;;;5.50;99.90;;;;;;4881790;29;20045;-87
2022/01/18 15:01:53;;;;;;;14.80;4.97;;;6.30;99.90;;;;;;4840991;29;20132;-87
2022/01/18 15:08:00;;;;;;;18.13;9.17;;;5.70;99.90;;;;;;4904204;23;20524;-90
2022/01/18 15:11:17;;;;;;;14.83;3.63;;;6.30;99.90;;;;;;4875904;29;20063;-90
2022/01/18 15:14:34;;;;;;;15.53;6.13;;;5.80;99.90;;;;;;4905304;23;20061;-88
2022/01/18 15:17:00;;;;;;;18.77;6.47;;;5.70;99.90;;;;;;4863702;29;20106;-88
2022/01/18 15:19:28;;;;;;;16.87;5.17;;;5.80;99.90;;;;;;4864403;29;20041;-88
2022/01/18 15:21:57;;;;;;;15.63;4.40;;;6.50;99.90;;;;;;4864792;29;20503;-87
2022/01/18 15:26:59;;;;;;;17.73;4.33;;;5.50;99.90;;;;;;4887552;23;20068;-89
2022/01/18 15:32:30;;;;;;;;;;;5.80;99.90;;;;;;4823854;29;20061;-88
2022/01/18 15:41:39;;;;;;;20.47;12.60;;;5.70;99.90;;;;;;4884723;23;20057;-89
2022/01/18 15:44:30;;;;;;;16.83;4.70;;;5.50;99.90;;;;;;4874770;29;20490;-89